sensor_id;sensor_type;location;lat;lon;timestamp;pressure;altitude;pressure_sealevel;temperature;humidity
63708;BME280;67643;-34.198;22.084;2023-04-08T00:01:13;100133.18;;;21.14;44.75
63708;BME280;67643;-34.198;22.084;2023-04-08T02:04:41;100117.30;;;17.09;58.05
63708;BME280;67643;-34.198;22.084;2023-04-08T02:07:09;100115.57;;;18.40;52.87
63708;BME280;67643;-34.198;22.084;2023-04-08T02:09:38;100114.25;;;19.50;50.36
63708;BME280;67643;-34.198;22.084;2023-04-08T02:12:07;100115.89;;;19.43;49.14
63708;BME280;67643;-34.198;22.084;2023-04-08T02:14:35;100112.02;;;19.31;48.37
63708;BME280;67643;-34.198;22.084;2023-04-08T02:17:09;100113.20;;;19.74;47.47
63708;BME280;67643;-34.198;22.084;2023-04-08T02:19:45;100117.72;;;19.76;47.00
63708;BME280;67643;-34.198;22.084;2023-04-08T02:22:24;100114.38;;;19.79;47.23
63708;BME280;67643;-34.198;22.084;2023-04-08T02:24:58;100110.86;;;20.47;46.23
63708;BME280;67643;-34.198;22.084;2023-04-08T02:27:28;100111.88;;;20.35;46.34
63708;BME280;67643;-34.198;22.084;2023-04-08T02:29:57;100116.48;;;20.19;46.62
63708;BME280;67643;-34.198;22.084;2023-04-08T02:32:28;100121.48;;;20.20;46.54
63708;BME280;67643;-34.198;22.084;2023-04-08T02:34:59;100123.17;;;19.63;47.39
63708;BME280;67643;-34.198;22.084;2023-04-08T02:37:28;100131.25;;;19.70;46.69
63708;BME280;67643;-34.198;22.084;2023-04-08T02:39:57;100134.56;;;20.14;46.02
63708;BME280;67643;-34.198;22.084;2023-04-08T02:42:26;100137.61;;;19.84;46.47
63708;BME280;67643;-34.198;22.084;2023-04-08T02:44:54;100130.84;;;19.81;46.38
63708;BME280;67643;-34.198;22.084;2023-04-08T02:47:23;100123.21;;;19.79;46.34
63708;BME280;67643;-34.198;22.084;2023-04-08T02:49:52;100120.43;;;20.40;45.47
63708;BME280;67643;-34.198;22.084;2023-04-08T02:52:20;100122.71;;;20.39;45.83
63708;BME280;67643;-34.198;22.084;2023-04-08T02:54:49;100128.71;;;20.43;45.76
63708;BME280;67643;-34.198;22.084;2023-04-08T02:57:17;100129.66;;;20.23;45.68
63708;BME280;67643;-34.198;22.084;2023-04-08T02:59:46;100129.71;;;20.58;45.51
63708;BME280;67643;-34.198;22.084;2023-04-08T03:02:14;100131.67;;;20.26;45.58
63708;BME280;67643;-34.198;22.084;2023-04-08T03:04:43;100134.91;;;20.46;45.32
63708;BME280;67643;-34.198;22.084;2023-04-08T03:07:11;100136.92;;;20.62;45.48
63708;BME280;67643;-34.198;22.084;2023-04-08T03:09:40;100146.39;;;19.97;45.98
63708;BME280;67643;-34.198;22.084;2023-04-08T03:12:08;100150.32;;;20.34;45.75
63708;BME280;67643;-34.198;22.084;2023-04-08T03:14:37;100153.93;;;20.31;44.98
63708;BME280;67643;-34.198;22.084;2023-04-08T03:17:05;100161.70;;;20.66;44.69
63708;BME280;67643;-34.198;22.084;2023-04-08T03:19:34;100169.16;;;20.23;45.73
63708;BME280;67643;-34.198;22.084;2023-04-08T03:22:02;100167.85;;;20.71;44.88
63708;BME280;67643;-34.198;22.084;2023-04-08T03:24:30;100172.50;;;20.36;45.28
63708;BME280;67643;-34.198;22.084;2023-04-08T03:26:59;100169.57;;;19.78;45.70
63708;BME280;67643;-34.198;22.084;2023-04-08T03:29:27;100176.13;;;20.51;44.90
63708;BME280;67643;-34.198;22.084;2023-04-08T03:31:55;100181.08;;;20.24;45.45
63708;BME280;67643;-34.198;22.084;2023-04-08T03:34:24;100186.39;;;20.66;44.61
63708;BME280;67643;-34.198;22.084;2023-04-08T03:36:52;100189.24;;;19.70;45.99
63708;BME280;67643;-34.198;22.084;2023-04-08T03:39:21;100190.93;;;20.01;45.13
63708;BME280;67643;-34.198;22.084;2023-04-08T03:41:49;100192.35;;;20.20;44.83
63708;BME280;67643;-34.198;22.084;2023-04-08T03:44:18;100189.60;;;19.96;44.84
63708;BME280;67643;-34.198;22.084;2023-04-08T03:46:46;100189.83;;;20.55;44.04
63708;BME280;67643;-34.198;22.084;2023-04-08T03:49:15;100189.32;;;20.28;44.03
63708;BME280;67643;-34.198;22.084;2023-04-08T03:51:43;100192.61;;;20.62;43.66
63708;BME280;67643;-34.198;22.084;2023-04-08T03:54:11;100192.55;;;20.14;43.86
63708;BME280;67643;-34.198;22.084;2023-04-08T03:56:40;100194.82;;;20.04;44.01
63708;BME280;67643;-34.198;22.084;2023-04-08T03:59:09;100191.75;;;19.85;44.19
63708;BME280;67643;-34.198;22.084;2023-04-08T04:01:37;100195.86;;;20.63;43.58
63708;BME280;67643;-34.198;22.084;2023-04-08T04:04:06;100200.70;;;20.23;43.80
63708;BME280;67643;-34.198;22.084;2023-04-08T04:06:35;100209.01;;;20.47;43.51
63708;BME280;67643;-34.198;22.084;2023-04-08T04:09:03;100211.13;;;20.31;43.81
63708;BME280;67643;-34.198;22.084;2023-04-08T04:11:34;100209.41;;;20.70;43.78
63708;BME280;67643;-34.198;22.084;2023-04-08T04:14:02;100208.43;;;20.39;43.93
63708;BME280;67643;-34.198;22.084;2023-04-08T04:16:31;100207.42;;;20.19;44.29
63708;BME280;67643;-34.198;22.084;2023-04-08T04:18:59;100213.73;;;20.78;43.80
63708;BME280;67643;-34.198;22.084;2023-04-08T04:21:28;100213.11;;;20.80;43.79
63708;BME280;67643;-34.198;22.084;2023-04-08T04:23:56;100206.70;;;20.61;44.20
63708;BME280;67643;-34.198;22.084;2023-04-08T04:26:24;100203.08;;;20.41;44.03
63708;BME280;67643;-34.198;22.084;2023-04-08T04:28:53;100204.80;;;20.38;44.16
63708;BME280;67643;-34.198;22.084;2023-04-08T04:31:22;100217.13;;;20.84;43.89
63708;BME280;67643;-34.198;22.084;2023-04-08T04:33:52;100221.88;;;20.44;44.14
63708;BME280;67643;-34.198;22.084;2023-04-08T04:36:20;100217.77;;;20.77;43.88
63708;BME280;67643;-34.198;22.084;2023-04-08T04:38:49;100209.85;;;20.09;44.56
63708;BME280;67643;-34.198;22.084;2023-04-08T04:41:18;100213.63;;;20.82;43.89
63708;BME280;67643;-34.198;22.084;2023-04-08T04:43:46;100216.60;;;20.10;44.61
63708;BME280;67643;-34.198;22.084;2023-04-08T04:46:15;100226.84;;;19.06;46.80
63708;BME280;67643;-34.198;22.084;2023-04-08T04:48:43;100233.93;;;19.01;46.41
63708;BME280;67643;-34.198;22.084;2023-04-08T04:51:12;100233.86;;;19.54;46.38
63708;BME280;67643;-34.198;22.084;2023-04-08T04:53:40;100231.99;;;19.88;45.61
63708;BME280;67643;-34.198;22.084;2023-04-08T04:56:09;100233.66;;;20.22;45.64
63708;BME280;67643;-34.198;22.084;2023-04-08T04:58:37;100231.63;;;19.29;45.95
63708;BME280;67643;-34.198;22.084;2023-04-08T05:01:06;100231.55;;;19.78;45.63
63708;BME280;67643;-34.198;22.084;2023-04-08T05:03:34;100230.65;;;19.72;46.23
63708;BME280;67643;-34.198;22.084;2023-04-08T05:06:03;100231.43;;;19.88;45.63
63708;BME280;67643;-34.198;22.084;2023-04-08T05:08:32;100226.12;;;20.30;45.49
63708;BME280;67643;-34.198;22.084;2023-04-08T05:11:01;100230.39;;;20.08;45.42
63708;BME280;67643;-34.198;22.084;2023-04-08T05:13:29;100236.64;;;20.14;45.19
63708;BME280;67643;-34.198;22.084;2023-04-08T05:15:59;100233.81;;;20.30;45.06
63708;BME280;67643;-34.198;22.084;2023-04-08T05:18:28;100236.47;;;19.76;45.69
63708;BME280;67643;-34.198;22.084;2023-04-08T05:20:57;100236.21;;;19.96;45.43
63708;BME280;67643;-34.198;22.084;2023-04-08T05:23:26;100228.77;;;20.39;45.27
63708;BME280;67643;-34.198;22.084;2023-04-08T05:25:55;100229.19;;;19.71;45.78
63708;BME280;67643;-34.198;22.084;2023-04-08T05:28:23;100226.52;;;19.96;45.60
63708;BME280;67643;-34.198;22.084;2023-04-08T05:30:52;100222.41;;;19.49;46.60
63708;BME280;67643;-34.198;22.084;2023-04-08T05:33:20;100225.84;;;18.94;47.00
63708;BME280;67643;-34.198;22.084;2023-04-08T05:35:49;100231.44;;;19.46;46.85
63708;BME280;67643;-34.198;22.084;2023-04-08T05:38:17;100226.46;;;20.09;46.05
63708;BME280;67643;-34.198;22.084;2023-04-08T05:40:46;100234.42;;;19.14;47.69
63708;BME280;67643;-34.198;22.084;2023-04-08T05:43:14;100236.77;;;19.30;47.36
63708;BME280;67643;-34.198;22.084;2023-04-08T05:45:43;100237.49;;;18.76;47.85
63708;BME280;67643;-34.198;22.084;2023-04-08T05:48:11;100240.92;;;19.21;47.38
63708;BME280;67643;-34.198;22.084;2023-04-08T05:50:40;100243.13;;;19.69;47.06
63708;BME280;67643;-34.198;22.084;2023-04-08T05:53:09;100242.44;;;19.76;46.49
63708;BME280;67643;-34.198;22.084;2023-04-08T05:55:37;100248.51;;;19.31;47.49
63708;BME280;67643;-34.198;22.084;2023-04-08T05:58:05;100248.48;;;19.35;47.45
63708;BME280;67643;-34.198;22.084;2023-04-08T06:00:34;100249.70;;;19.22;47.39
63708;BME280;67643;-34.198;22.084;2023-04-08T06:03:02;100251.51;;;18.86;48.27
63708;BME280;67643;-34.198;22.084;2023-04-08T06:05:31;100249.50;;;19.67;46.52
63708;BME280;67643;-34.198;22.084;2023-04-08T06:07:59;100249.89;;;19.91;46.30
63708;BME280;67643;-34.198;22.084;2023-04-08T06:10:29;100252.92;;;19.62;46.66
63708;BME280;67643;-34.198;22.084;2023-04-08T06:12:57;100252.99;;;20.06;45.64
63708;BME280;67643;-34.198;22.084;2023-04-08T06:15:26;100252.43;;;20.19;45.81
63708;BME280;67643;-34.198;22.084;2023-04-08T06:17:54;100254.63;;;19.38;47.09
63708;BME280;67643;-34.198;22.084;2023-04-08T06:20:23;100252.05;;;19.95;46.64
63708;BME280;67643;-34.198;22.084;2023-04-08T06:22:51;100256.74;;;20.55;45.78
63708;BME280;67643;-34.198;22.084;2023-04-08T06:25:20;100259.53;;;19.92;45.93
63708;BME280;67643;-34.198;22.084;2023-04-08T06:27:48;100264.06;;;20.32;46.05
63708;BME280;67643;-34.198;22.084;2023-04-08T06:30:17;100270.80;;;19.94;46.00
63708;BME280;67643;-34.198;22.084;2023-04-08T06:32:45;100277.11;;;20.46;45.18
63708;BME280;67643;-34.198;22.084;2023-04-08T06:35:14;100275.94;;;19.96;45.56
63708;BME280;67643;-34.198;22.084;2023-04-08T06:37:42;100275.40;;;20.44;45.92
63708;BME280;67643;-34.198;22.084;2023-04-08T06:40:11;100275.64;;;20.07;45.74
63708;BME280;67643;-34.198;22.084;2023-04-08T06:42:39;100282.84;;;20.15;45.49
63708;BME280;67643;-34.198;22.084;2023-04-08T06:45:09;100284.70;;;20.24;45.42
63708;BME280;67643;-34.198;22.084;2023-04-08T06:47:39;100285.37;;;20.22;45.43
63708;BME280;67643;-34.198;22.084;2023-04-08T06:50:07;100283.58;;;20.51;45.14
63708;BME280;67643;-34.198;22.084;2023-04-08T06:52:36;100289.02;;;19.61;46.35
63708;BME280;67643;-34.198;22.084;2023-04-08T06:55:05;100291.32;;;20.10;45.70
63708;BME280;67643;-34.198;22.084;2023-04-08T06:57:34;100294.43;;;20.30;45.37
63708;BME280;67643;-34.198;22.084;2023-04-08T07:00:03;100298.62;;;20.43;45.34
63708;BME280;67643;-34.198;22.084;2023-04-08T07:02:32;100307.74;;;20.48;45.32
63708;BME280;67643;-34.198;22.084;2023-04-08T07:05:00;100316.89;;;20.21;45.87
63708;BME280;67643;-34.198;22.084;2023-04-08T07:07:29;100320.92;;;20.46;45.26
63708;BME280;67643;-34.198;22.084;2023-04-08T07:09:57;100326.77;;;20.69;45.20
63708;BME280;67643;-34.198;22.084;2023-04-08T07:12:27;100329.27;;;20.66;44.82
63708;BME280;67643;-34.198;22.084;2023-04-08T07:14:55;100332.22;;;20.85;44.96
63708;BME280;67643;-34.198;22.084;2023-04-08T07:17:24;100327.88;;;20.61;44.97
63708;BME280;67643;-34.198;22.084;2023-04-08T07:19:52;100321.26;;;20.85;44.72
63708;BME280;67643;-34.198;22.084;2023-04-08T07:22:20;100314.31;;;20.85;44.72
63708;BME280;67643;-34.198;22.084;2023-04-08T07:24:49;100318.38;;;20.75;44.99
63708;BME280;67643;-34.198;22.084;2023-04-08T07:27:18;100321.64;;;20.88;44.53
63708;BME280;67643;-34.198;22.084;2023-04-08T07:29:46;100317.10;;;20.82;45.15
63708;BME280;67643;-34.198;22.084;2023-04-08T07:32:19;100324.62;;;20.98;44.88
63708;BME280;67643;-34.198;22.084;2023-04-08T07:34:47;100328.04;;;21.09;45.46
63708;BME280;67643;-34.198;22.084;2023-04-08T07:37:16;100324.54;;;20.96;45.81
63708;BME280;67643;-34.198;22.084;2023-04-08T07:39:44;100324.83;;;21.15;46.04
63708;BME280;67643;-34.198;22.084;2023-04-08T07:42:13;100328.01;;;21.41;46.65
63708;BME280;67643;-34.198;22.084;2023-04-08T07:44:41;100330.71;;;21.48;46.40
63708;BME280;67643;-34.198;22.084;2023-04-08T07:47:10;100332.24;;;21.37;46.14
63708;BME280;67643;-34.198;22.084;2023-04-08T07:49:38;100331.23;;;21.53;45.34
63708;BME280;67643;-34.198;22.084;2023-04-08T07:52:07;100326.45;;;21.35;44.98
63708;BME280;67643;-34.198;22.084;2023-04-08T07:54:35;100321.76;;;21.34;46.05
63708;BME280;67643;-34.198;22.084;2023-04-08T07:57:04;100326.97;;;21.47;45.66
63708;BME280;67643;-34.198;22.084;2023-04-08T07:59:32;100329.41;;;21.19;45.95
63708;BME280;67643;-34.198;22.084;2023-04-08T08:02:02;100326.42;;;21.31;45.84
63708;BME280;67643;-34.198;22.084;2023-04-08T08:04:31;100324.54;;;21.49;45.22
63708;BME280;67643;-34.198;22.084;2023-04-08T08:07:00;100324.70;;;21.45;45.18
63708;BME280;67643;-34.198;22.084;2023-04-08T08:09:29;100325.30;;;21.52;44.94
63708;BME280;67643;-34.198;22.084;2023-04-08T08:11:57;100329.83;;;21.48;44.47
63708;BME280;67643;-34.198;22.084;2023-04-08T08:14:27;100333.19;;;21.32;44.62
63708;BME280;67643;-34.198;22.084;2023-04-08T08:16:55;100334.89;;;21.44;43.93
63708;BME280;67643;-34.198;22.084;2023-04-08T08:19:23;100335.78;;;21.30;44.01
63708;BME280;67643;-34.198;22.084;2023-04-08T08:21:52;100329.51;;;20.83;44.44
63708;BME280;67643;-34.198;22.084;2023-04-08T08:24:20;100326.77;;;20.90;44.19
63708;BME280;67643;-34.198;22.084;2023-04-08T08:26:49;100315.55;;;21.13;44.18
63708;BME280;67643;-34.198;22.084;2023-04-08T08:29:17;100307.35;;;20.79;44.00
63708;BME280;67643;-34.198;22.084;2023-04-08T08:31:46;100304.07;;;20.57;44.86
63708;BME280;67643;-34.198;22.084;2023-04-08T08:34:14;100308.49;;;19.21;46.91
63708;BME280;67643;-34.198;22.084;2023-04-08T08:36:43;100307.67;;;20.10;46.54
63708;BME280;67643;-34.198;22.084;2023-04-08T08:39:12;100308.34;;;20.30;45.87
63708;BME280;67643;-34.198;22.084;2023-04-08T08:41:40;100306.90;;;20.35;45.41
63708;BME280;67643;-34.198;22.084;2023-04-08T08:44:08;100306.90;;;20.41;44.74
63708;BME280;67643;-34.198;22.084;2023-04-08T08:46:36;100306.17;;;20.51;45.45
63708;BME280;67643;-34.198;22.084;2023-04-08T08:49:09;100306.45;;;20.75;44.30
63708;BME280;67643;-34.198;22.084;2023-04-08T08:51:39;100310.06;;;21.26;44.32
63708;BME280;67643;-34.198;22.084;2023-04-08T08:54:08;100313.48;;;21.13;43.97
63708;BME280;67643;-34.198;22.084;2023-04-08T08:56:37;100313.23;;;21.51;43.72
63708;BME280;67643;-34.198;22.084;2023-04-08T08:59:05;100311.98;;;21.00;44.19
63708;BME280;67643;-34.198;22.084;2023-04-08T09:01:35;100311.08;;;21.62;43.31
63708;BME280;67643;-34.198;22.084;2023-04-08T09:04:09;100308.53;;;21.58;43.37
63708;BME280;67643;-34.198;22.084;2023-04-08T09:06:38;100306.69;;;21.41;43.65
63708;BME280;67643;-34.198;22.084;2023-04-08T09:09:07;100311.65;;;21.59;43.40
63708;BME280;67643;-34.198;22.084;2023-04-08T09:11:36;100312.60;;;21.45;43.66
63708;BME280;67643;-34.198;22.084;2023-04-08T09:14:07;100315.51;;;21.16;43.38
63708;BME280;67643;-34.198;22.084;2023-04-08T09:16:45;100311.38;;;21.54;43.60
63708;BME280;67643;-34.198;22.084;2023-04-08T09:19:13;100311.42;;;21.71;43.35
63708;BME280;67643;-34.198;22.084;2023-04-08T09:21:41;100312.56;;;21.45;43.42
63708;BME280;67643;-34.198;22.084;2023-04-08T09:24:27;100311.87;;;21.81;43.16
63708;BME280;67643;-34.198;22.084;2023-04-08T09:26:56;100310.33;;;21.63;43.62
63708;BME280;67643;-34.198;22.084;2023-04-08T09:29:25;100306.43;;;21.67;43.15
63708;BME280;67643;-34.198;22.084;2023-04-08T09:31:55;100303.12;;;21.54;43.25
63708;BME280;67643;-34.198;22.084;2023-04-08T09:34:25;100305.22;;;21.55;42.99
63708;BME280;67643;-34.198;22.084;2023-04-08T09:36:54;100308.31;;;21.25;43.09
63708;BME280;67643;-34.198;22.084;2023-04-08T09:39:23;100306.27;;;21.29;43.45
63708;BME280;67643;-34.198;22.084;2023-04-08T09:41:52;100307.59;;;21.47;42.94
63708;BME280;67643;-34.198;22.084;2023-04-08T09:44:25;100309.73;;;21.63;43.09
63708;BME280;67643;-34.198;22.084;2023-04-08T09:47:00;100309.19;;;21.55;42.55
63708;BME280;67643;-34.198;22.084;2023-04-08T09:49:37;100307.55;;;21.99;42.67
63708;BME280;67643;-34.198;22.084;2023-04-08T09:52:07;100308.67;;;21.78;42.56
63708;BME280;67643;-34.198;22.084;2023-04-08T09:54:54;100312.23;;;21.46;42.65
63708;BME280;67643;-34.198;22.084;2023-04-08T09:57:39;100310.17;;;21.79;42.42
63708;BME280;67643;-34.198;22.084;2023-04-08T10:00:11;100307.98;;;21.89;42.37
63708;BME280;67643;-34.198;22.084;2023-04-08T10:02:48;100304.88;;;21.89;42.53
63708;BME280;67643;-34.198;22.084;2023-04-08T10:05:20;100308.64;;;22.01;42.30
63708;BME280;67643;-34.198;22.084;2023-04-08T10:07:50;100309.49;;;21.92;42.59
63708;BME280;67643;-34.198;22.084;2023-04-08T10:10:19;100307.18;;;22.00;42.45
63708;BME280;67643;-34.198;22.084;2023-04-08T10:12:48;100310.11;;;21.77;42.62
63708;BME280;67643;-34.198;22.084;2023-04-08T10:15:26;100311.72;;;22.07;42.61
63708;BME280;67643;-34.198;22.084;2023-04-08T10:18:28;100310.65;;;21.71;43.22
63708;BME280;67643;-34.198;22.084;2023-04-08T10:20:57;100311.14;;;21.92;43.00
63708;BME280;67643;-34.198;22.084;2023-04-08T10:23:55;100313.57;;;21.87;43.13
63708;BME280;67643;-34.198;22.084;2023-04-08T10:26:32;100317.04;;;21.94;42.75
63708;BME280;67643;-34.198;22.084;2023-04-08T10:29:33;100317.86;;;21.79;43.14
63708;BME280;67643;-34.198;22.084;2023-04-08T10:32:02;100317.85;;;21.88;42.77
63708;BME280;67643;-34.198;22.084;2023-04-08T10:34:30;100318.72;;;22.29;42.60
63708;BME280;67643;-34.198;22.084;2023-04-08T10:36:59;100318.74;;;22.17;42.54
63708;BME280;67643;-34.198;22.084;2023-04-08T10:39:29;100318.67;;;21.86;42.98
63708;BME280;67643;-34.198;22.084;2023-04-08T10:41:57;100314.97;;;22.07;42.97
63708;BME280;67643;-34.198;22.084;2023-04-08T10:44:28;100316.41;;;22.08;42.66
63708;BME280;67643;-34.198;22.084;2023-04-08T10:46:57;100314.17;;;22.17;42.73
63708;BME280;67643;-34.198;22.084;2023-04-08T10:49:32;100310.68;;;22.14;42.68
63708;BME280;67643;-34.198;22.084;2023-04-08T10:52:07;100310.63;;;22.12;42.69
63708;BME280;67643;-34.198;22.084;2023-04-08T10:54:37;100309.96;;;21.70;42.38
63708;BME280;67643;-34.198;22.084;2023-04-08T10:57:05;100306.03;;;22.00;42.66
63708;BME280;67643;-34.198;22.084;2023-04-08T10:59:33;100305.21;;;21.79;42.36
63708;BME280;67643;-34.198;22.084;2023-04-08T11:02:02;100305.11;;;22.13;42.31
63708;BME280;67643;-34.198;22.084;2023-04-08T11:04:30;100310.39;;;21.94;42.44
63708;BME280;67643;-34.198;22.084;2023-04-08T11:06:59;100302.76;;;22.35;42.07
63708;BME280;67643;-34.198;22.084;2023-04-08T11:09:27;100298.94;;;22.31;42.04
63708;BME280;67643;-34.198;22.084;2023-04-08T11:11:56;100298.87;;;22.19;42.11
63708;BME280;67643;-34.198;22.084;2023-04-08T11:14:25;100296.71;;;22.03;42.26
63708;BME280;67643;-34.198;22.084;2023-04-08T11:16:53;100293.87;;;21.48;42.25
63708;BME280;67643;-34.198;22.084;2023-04-08T11:19:23;100293.12;;;21.86;42.22
63708;BME280;67643;-34.198;22.084;2023-04-08T11:21:51;100295.23;;;21.50;42.39
63708;BME280;67643;-34.198;22.084;2023-04-08T11:24:21;100293.53;;;21.78;41.98
63708;BME280;67643;-34.198;22.084;2023-04-08T11:26:49;100296.51;;;21.80;42.00
63708;BME280;67643;-34.198;22.084;2023-04-08T11:29:18;100298.41;;;21.90;41.71
63708;BME280;67643;-34.198;22.084;2023-04-08T11:31:47;100295.18;;;21.60;41.77
63708;BME280;67643;-34.198;22.084;2023-04-08T11:34:22;100294.43;;;21.80;42.25
63708;BME280;67643;-34.198;22.084;2023-04-08T11:36:51;100294.49;;;21.54;42.47
63708;BME280;67643;-34.198;22.084;2023-04-08T11:39:23;100294.08;;;21.66;41.81
63708;BME280;67643;-34.198;22.084;2023-04-08T11:41:51;100288.09;;;21.98;41.66
63708;BME280;67643;-34.198;22.084;2023-04-08T11:44:19;100283.33;;;21.92;41.69
63708;BME280;67643;-34.198;22.084;2023-04-08T11:46:57;100284.73;;;21.98;41.54
63708;BME280;67643;-34.198;22.084;2023-04-08T11:49:25;100283.53;;;21.68;41.64
63708;BME280;67643;-34.198;22.084;2023-04-08T11:51:55;100280.95;;;21.79;41.53
63708;BME280;67643;-34.198;22.084;2023-04-08T11:54:27;100276.02;;;21.34;42.08
63708;BME280;67643;-34.198;22.084;2023-04-08T11:56:57;100278.96;;;22.04;41.22
63708;BME280;67643;-34.198;22.084;2023-04-08T11:59:26;100277.27;;;21.70;41.28
63708;BME280;67643;-34.198;22.084;2023-04-08T12:01:54;100276.89;;;21.90;41.02
63708;BME280;67643;-34.198;22.084;2023-04-08T12:04:23;100274.59;;;21.82;40.70
63708;BME280;67643;-34.198;22.084;2023-04-08T12:06:51;100274.39;;;21.93;40.55
63708;BME280;67643;-34.198;22.084;2023-04-08T12:09:20;100274.13;;;22.13;40.52
63708;BME280;67643;-34.198;22.084;2023-04-08T12:11:48;100276.28;;;21.44;40.95
63708;BME280;67643;-34.198;22.084;2023-04-08T12:14:17;100276.86;;;21.43;40.82
63708;BME280;67643;-34.198;22.084;2023-04-08T12:16:45;100282.65;;;21.77;40.25
63708;BME280;67643;-34.198;22.084;2023-04-08T12:19:14;100285.12;;;21.41;40.86
63708;BME280;67643;-34.198;22.084;2023-04-08T12:21:43;100290.49;;;21.56;40.44
63708;BME280;67643;-34.198;22.084;2023-04-08T12:24:11;100290.01;;;21.48;40.58
63708;BME280;67643;-34.198;22.084;2023-04-08T12:26:40;100292.37;;;21.38;40.27
63708;BME280;67643;-34.198;22.084;2023-04-08T12:29:09;100293.40;;;21.19;39.96
63708;BME280;67643;-34.198;22.084;2023-04-08T12:31:37;100286.95;;;21.30;39.68
63708;BME280;67643;-34.198;22.084;2023-04-08T12:34:06;100283.00;;;21.55;39.07
63708;BME280;67643;-34.198;22.084;2023-04-08T12:36:34;100284.99;;;21.50;39.58
63708;BME280;67643;-34.198;22.084;2023-04-08T12:39:02;100282.34;;;21.10;39.78
63708;BME280;67643;-34.198;22.084;2023-04-08T12:41:31;100285.66;;;21.41;38.99
63708;BME280;67643;-34.198;22.084;2023-04-08T12:43:59;100283.95;;;21.38;39.25
63708;BME280;67643;-34.198;22.084;2023-04-08T12:46:28;100286.23;;;21.64;38.41
63708;BME280;67643;-34.198;22.084;2023-04-08T12:48:56;100290.66;;;21.40;38.70
63708;BME280;67643;-34.198;22.084;2023-04-08T12:51:25;100289.45;;;21.32;38.95
63708;BME280;67643;-34.198;22.084;2023-04-08T12:53:53;100286.39;;;21.13;39.09
63708;BME280;67643;-34.198;22.084;2023-04-08T12:56:22;100285.17;;;21.18;39.25
63708;BME280;67643;-34.198;22.084;2023-04-08T12:58:50;100287.33;;;21.11;38.83
63708;BME280;67643;-34.198;22.084;2023-04-08T13:01:19;100288.01;;;21.23;38.74
63708;BME280;67643;-34.198;22.084;2023-04-08T13:03:47;100291.49;;;20.88;38.92
63708;BME280;67643;-34.198;22.084;2023-04-08T13:06:15;100293.63;;;20.60;39.01
63708;BME280;67643;-34.198;22.084;2023-04-08T13:08:44;100298.28;;;21.18;38.71
63708;BME280;67643;-34.198;22.084;2023-04-08T13:11:12;100298.34;;;20.70;38.63
63708;BME280;67643;-34.198;22.084;2023-04-08T13:13:40;100300.29;;;21.42;37.66
63708;BME280;67643;-34.198;22.084;2023-04-08T13:16:11;100304.28;;;20.66;38.73
63708;BME280;67643;-34.198;22.084;2023-04-08T13:18:40;100303.72;;;21.00;38.01
63708;BME280;67643;-34.198;22.084;2023-04-08T13:21:08;100303.98;;;20.74;37.99
63708;BME280;67643;-34.198;22.084;2023-04-08T13:23:38;100311.03;;;20.79;37.51
63708;BME280;67643;-34.198;22.084;2023-04-08T13:26:06;100310.50;;;20.92;37.25
63708;BME280;67643;-34.198;22.084;2023-04-08T13:28:34;100308.96;;;21.18;37.29
63708;BME280;67643;-34.198;22.084;2023-04-08T13:31:03;100312.70;;;20.78;38.30
63708;BME280;67643;-34.198;22.084;2023-04-08T13:33:31;100317.17;;;20.98;37.99
63708;BME280;67643;-34.198;22.084;2023-04-08T13:36:00;100314.93;;;20.98;37.99
63708;BME280;67643;-34.198;22.084;2023-04-08T13:38:28;100311.77;;;20.39;39.11
63708;BME280;67643;-34.198;22.084;2023-04-08T13:40:57;100308.77;;;20.77;38.37
63708;BME280;67643;-34.198;22.084;2023-04-08T13:43:26;100313.05;;;20.72;38.23
63708;BME280;67643;-34.198;22.084;2023-04-08T13:45:55;100314.39;;;20.67;38.15
63708;BME280;67643;-34.198;22.084;2023-04-08T13:48:24;100312.96;;;21.36;37.40
63708;BME280;67643;-34.198;22.084;2023-04-08T13:50:52;100307.43;;;20.59;38.69
63708;BME280;67643;-34.198;22.084;2023-04-08T13:53:21;100305.87;;;20.92;38.33
63708;BME280;67643;-34.198;22.084;2023-04-08T13:55:50;100307.38;;;20.99;37.95
63708;BME280;67643;-34.198;22.084;2023-04-08T13:58:18;100305.43;;;20.83;37.97
63708;BME280;67643;-34.198;22.084;2023-04-08T14:00:47;100307.71;;;20.79;38.20
63708;BME280;67643;-34.198;22.084;2023-04-08T14:03:15;100309.91;;;20.72;37.61
63708;BME280;67643;-34.198;22.084;2023-04-08T14:05:43;100309.15;;;20.52;37.76
63708;BME280;67643;-34.198;22.084;2023-04-08T14:08:12;100311.98;;;20.71;37.69
63708;BME280;67643;-34.198;22.084;2023-04-08T14:10:41;100317.91;;;21.07;37.45
63708;BME280;67643;-34.198;22.084;2023-04-08T14:13:09;100318.42;;;20.22;37.77
63708;BME280;67643;-34.198;22.084;2023-04-08T14:15:37;100318.94;;;21.27;36.75
63708;BME280;67643;-34.198;22.084;2023-04-08T14:18:06;100320.41;;;20.41;37.37
63708;BME280;67643;-34.198;22.084;2023-04-08T14:20:34;100322.91;;;20.53;37.39
63708;BME280;67643;-34.198;22.084;2023-04-08T14:23:03;100319.35;;;20.91;36.54
63708;BME280;67643;-34.198;22.084;2023-04-08T14:25:32;100316.54;;;20.81;36.42
63708;BME280;67643;-34.198;22.084;2023-04-08T14:28:01;100311.92;;;20.48;36.64
63708;BME280;67643;-34.198;22.084;2023-04-08T14:30:29;100314.42;;;20.54;37.14
63708;BME280;67643;-34.198;22.084;2023-04-08T14:32:57;100319.33;;;20.63;36.74
63708;BME280;67643;-34.198;22.084;2023-04-08T14:35:26;100322.04;;;20.83;36.07
63708;BME280;67643;-34.198;22.084;2023-04-08T14:37:54;100321.64;;;21.06;36.36
63708;BME280;67643;-34.198;22.084;2023-04-08T14:40:23;100326.16;;;20.53;36.40
63708;BME280;67643;-34.198;22.084;2023-04-08T14:42:51;100325.99;;;20.51;36.09